Comfrey, MN (56019)

11:00 AM CST on January 27, 2015 (GMT -0600)
Sleepy Eye Airport | Change Station
CLOSE
Current Station
Personal Weather Station
Location: Sleepy Eye, MN
Elevation: 994 ft
Nearby Weather Stations

Elev 994 ft 44.25 °N, 94.71 °W | Updated 5 seconds ago

Overcast
Overcast
32.6 °F
Feels Like 27 °F
N
6.0
Wind Variable Wind from SE
Gusts 12.0 mph

Today
High -- | Low -- °F
--% Chance of Precip.
Yesterday
High -- | Low -- °F
Precip. -- in
7:42 AM 5:22 PM
First Quarter, 55% visible
Pressure 30.13 in
Visibility 10.0 miles
Clouds Overcast 700 ft
Windchill 27 °F
Dew Point 30 °F
Humidity 89%
Rainfall 0.00 in
Snow Depth Not available.
UV 0.0 out of 12
Pollen .10 out of 12
Air Quality Not available.
Flu Activity Not available.
METAR KMWM 271654Z AUTO 11007KT 10SM OVC007 01/M01 A3013 RMK AO2

More Conditions Fewer Conditions

Pressure 30.13 in
Visibility 10.0 miles
Clouds Overcast 700 ft
Windchill 27 °F
Dew Point 30 °F
Humidity 89%
Rainfall 0.00 in
Snow Depth Not available.
UV 0.0 out of 12
Pollen .10 out of 12
Air Quality Not available.
Flu Activity Not available.
METAR KMWM 271654Z AUTO 11007KT 10SM OVC007 01/M01 A3013 RMK AO2

More Conditions Fewer Conditions

10-Day Weather Forecast

Almanac

Astronomy

Jan. 27, 2015 Rise Set
Actual Time
Civil Twilight
Nautical Twilight
Astronomical Twilight
Moon
Length of Visible Light
Length of Day
Tomorrow will be .
, % of the Moon is Illuminated

Today's Extremes

State Highs State Lows

Community

WunderPhotos

Upload Photos

1,790,729 photos uploaded!

WunderBlogs® & News

Nearby

Air Quality

  Air Quality AQ Index Pollutant
Not available.

Snow Depth

Station Depth Elevation

Earthquake Activity

City Distance Mag. Time & Date
Minimum magnitude displayed is 2.5.

Coastal Water Temperatures

Place Temperature

Nearby Weather Stations